createdAt,value
2023-03-22T00:01:20.876Z,4.35
2023-03-22T00:03:51.231Z,4.80
2023-03-22T00:06:20.545Z,3.80
2023-03-22T00:08:53.481Z,6.88
2023-03-22T00:11:24.431Z,4.57
2023-03-22T00:13:54.966Z,3.47
2023-03-22T00:16:23.933Z,5.45
2023-03-22T00:18:52.560Z,7.00
2023-03-22T00:21:22.376Z,3.58
2023-03-22T00:23:52.263Z,4.93
2023-03-22T00:26:20.586Z,2.92
2023-03-22T00:28:48.931Z,4.47
2023-03-22T00:31:17.412Z,4.47
2023-03-22T00:33:45.741Z,5.18
2023-03-22T00:36:18.078Z,6.15
2023-03-22T00:38:46.551Z,3.40
2023-03-22T00:41:18.066Z,3.25
2023-03-22T00:43:47.161Z,4.18
2023-03-22T00:46:18.590Z,4.30
2023-03-22T00:48:47.120Z,3.00
2023-03-22T00:51:16.444Z,3.10
2023-03-22T00:53:44.791Z,3.75
2023-03-22T00:56:23.516Z,3.03
2023-03-22T00:58:54.732Z,5.47
2023-03-22T01:01:22.792Z,3.33
2023-03-22T01:03:51.000Z,4.82
2023-03-22T01:06:19.587Z,5.25
2023-03-22T01:08:50.747Z,5.15
2023-03-22T01:11:19.081Z,3.72
2023-03-22T01:13:47.903Z,4.65
2023-03-22T01:16:18.453Z,3.47
2023-03-22T01:18:46.496Z,3.75
2023-03-22T01:21:14.630Z,4.32
2023-03-22T01:23:42.469Z,5.93
2023-03-22T01:26:10.496Z,4.75
2023-03-22T01:28:40.473Z,2.63
2023-03-22T01:31:08.772Z,5.57
2023-03-22T01:33:38.018Z,3.33
2023-03-22T01:36:06.709Z,5.70
2023-03-22T01:38:34.546Z,3.60
2023-03-22T01:41:02.501Z,3.78
2023-03-22T01:43:30.463Z,7.05
2023-03-22T01:45:58.699Z,6.15
2023-03-22T01:48:29.006Z,5.95
2023-03-22T01:51:11.220Z,8.40
2023-03-22T01:53:42.952Z,6.43
2023-03-22T01:56:11.615Z,5.97
2023-03-22T01:58:40.591Z,5.18
2023-03-22T02:01:10.996Z,5.43
2023-03-22T02:03:46.050Z,4.70
2023-03-22T02:06:15.461Z,5.10
2023-03-22T02:08:43.316Z,6.93
2023-03-22T02:11:15.916Z,6.72
2023-03-22T02:13:59.662Z,6.93
2023-03-22T02:16:40.023Z,6.85
2023-03-22T02:19:30.517Z,4.65
2023-03-22T02:22:40.574Z,5.32
2023-03-22T02:25:34.384Z,6.85
2023-03-22T02:28:38.839Z,5.65
2023-03-22T02:31:42.277Z,4.28
2023-03-22T02:34:43.396Z,4.13
2023-03-22T02:37:57.412Z,9.07
2023-03-22T02:40:33.343Z,7.13
2023-03-22T02:43:10.809Z,6.03
2023-03-22T02:45:46.040Z,4.78
2023-03-22T02:48:18.792Z,4.50
2023-03-22T02:50:53.573Z,10.95
2023-03-22T02:53:25.832Z,8.40
2023-03-22T02:55:59.516Z,7.88
2023-03-22T02:58:30.380Z,5.05
2023-03-22T03:01:02.715Z,4.32
2023-03-22T03:03:32.293Z,4.85
2023-03-22T03:06:05.964Z,7.70
2023-03-22T03:08:34.397Z,4.20
2023-03-22T03:11:03.777Z,4.30
2023-03-22T03:13:31.831Z,4.93
2023-03-22T03:16:01.658Z,10.05
2023-03-22T03:18:40.681Z,6.47
2023-03-22T03:21:21.841Z,4.95
2023-03-22T03:23:56.002Z,4.50
2023-03-22T03:26:35.026Z,8.73
2023-03-22T03:29:07.093Z,5.07
2023-03-22T03:31:41.776Z,4.88
2023-03-22T03:34:17.294Z,6.57
2023-03-22T03:36:51.157Z,5.25
2023-03-22T03:39:21.934Z,4.55
2023-03-22T03:41:54.038Z,5.20
2023-03-22T03:44:22.710Z,5.43
2023-03-22T03:46:53.754Z,4.88
2023-03-22T03:49:24.071Z,4.60
2023-03-22T03:51:54.099Z,6.35
2023-03-22T03:54:22.598Z,6.00
2023-03-22T03:56:51.882Z,7.53
2023-03-22T03:59:20.910Z,5.60
2023-03-22T04:01:51.686Z,5.18
2023-03-22T04:04:26.180Z,5.95
2023-03-22T04:06:56.682Z,9.15
2023-03-22T04:09:26.780Z,16.48
2023-03-22T04:11:56.800Z,5.97
2023-03-22T04:14:25.628Z,5.45
2023-03-22T04:16:54.056Z,5.65
2023-03-22T04:19:22.254Z,6.70
2023-03-22T04:21:53.066Z,5.03
2023-03-22T04:24:21.579Z,9.13
2023-03-22T04:26:49.428Z,4.53
2023-03-22T04:29:18.561Z,5.68
2023-03-22T04:31:46.440Z,6.55
2023-03-22T04:34:14.397Z,5.45
2023-03-22T04:36:42.400Z,8.57
2023-03-22T04:39:11.768Z,5.50
2023-03-22T04:41:39.689Z,5.88
2023-03-22T04:44:08.992Z,5.55
2023-03-22T04:46:38.639Z,7.00
2023-03-22T04:49:07.470Z,5.97
2023-03-22T04:51:35.352Z,8.32
2023-03-22T04:54:03.210Z,6.30
2023-03-22T04:56:31.092Z,7.50
2023-03-22T04:58:59.028Z,5.25
2023-03-22T05:01:26.881Z,5.68
2023-03-22T05:03:56.179Z,7.53
2023-03-22T05:06:24.250Z,10.32
2023-03-22T05:08:52.117Z,7.55
2023-03-22T05:11:20.410Z,8.35
2023-03-22T05:13:48.272Z,5.03
2023-03-22T05:16:16.259Z,7.82
2023-03-22T05:18:45.375Z,7.40
2023-03-22T05:21:15.929Z,6.00
2023-03-22T05:23:44.122Z,4.75
2023-03-22T05:26:15.967Z,6.53
2023-03-22T05:28:44.807Z,9.02
2023-03-22T05:31:14.891Z,4.38
2023-03-22T05:33:42.798Z,4.38
2023-03-22T05:36:12.160Z,9.25
2023-03-22T05:38:41.338Z,6.25
2023-03-22T05:41:10.578Z,8.70
2023-03-22T05:43:38.746Z,4.50
2023-03-22T05:46:07.669Z,7.63
2023-03-22T05:48:35.926Z,5.15
2023-03-22T05:51:06.330Z,5.30
2023-03-22T05:53:34.152Z,12.70
2023-03-22T05:56:03.565Z,4.05
2023-03-22T05:58:33.786Z,7.15
2023-03-22T06:01:07.015Z,6.85
2023-03-22T06:03:35.057Z,5.45
2023-03-22T06:06:06.678Z,6.53
2023-03-22T06:08:34.761Z,7.40
2023-03-22T06:11:04.504Z,7.97
2023-03-22T06:13:32.562Z,6.95
2023-03-22T06:16:00.983Z,5.38
2023-03-22T06:18:28.921Z,6.72
2023-03-22T06:20:56.874Z,6.90
2023-03-22T06:23:24.767Z,6.28
2023-03-22T06:25:52.675Z,6.88
2023-03-22T06:28:22.056Z,7.32
2023-03-22T06:30:50.058Z,5.72
2023-03-22T06:33:17.977Z,8.10
2023-03-22T06:35:46.003Z,5.30
2023-03-22T06:38:14.206Z,7.13
2023-03-22T06:40:42.290Z,4.70
2023-03-22T06:43:10.292Z,5.03
2023-03-22T06:45:39.493Z,8.45
2023-03-22T06:48:08.067Z,6.95
2023-03-22T06:50:38.381Z,9.90
2023-03-22T06:53:06.779Z,6.53
2023-03-22T06:55:34.966Z,7.53
2023-03-22T06:58:03.347Z,4.90
2023-03-22T07:00:31.967Z,5.75
2023-03-22T07:03:01.765Z,4.13
2023-03-22T07:05:29.673Z,5.82
2023-03-22T07:07:57.643Z,5.55
2023-03-22T07:10:25.508Z,3.30
2023-03-22T07:12:53.368Z,3.92
2023-03-22T07:15:24.261Z,3.58
2023-03-22T07:17:52.424Z,4.63
2023-03-22T07:20:21.821Z,4.88
2023-03-22T07:22:51.085Z,4.55
2023-03-22T07:25:19.033Z,5.72
2023-03-22T07:27:47.181Z,5.22
2023-03-22T07:30:15.225Z,4.53
2023-03-22T07:32:43.108Z,7.50
2023-03-22T07:35:11.193Z,3.45
2023-03-22T07:37:40.504Z,4.80
2023-03-22T07:40:09.701Z,4.90
2023-03-22T07:42:37.845Z,4.38
2023-03-22T07:45:06.921Z,3.22
2023-03-22T07:47:41.054Z,2.22
2023-03-22T07:50:11.712Z,3.08
2023-03-22T07:52:40.991Z,2.83
2023-03-22T07:55:10.958Z,5.55
2023-03-22T07:57:39.225Z,3.25
2023-03-22T08:00:10.318Z,4.18
2023-03-22T08:02:38.657Z,3.67
2023-03-22T08:05:08.205Z,4.78
2023-03-22T08:07:36.236Z,4.45
2023-03-22T08:10:06.638Z,6.05
2023-03-22T08:12:34.556Z,1.70
2023-03-22T08:15:03.034Z,3.08
2023-03-22T08:17:31.076Z,5.22
2023-03-22T08:19:58.898Z,4.32
2023-03-22T08:22:29.817Z,2.47
2023-03-22T08:24:57.631Z,3.33
2023-03-22T08:27:27.343Z,3.42
2023-03-22T08:29:55.373Z,2.15
2023-03-22T08:32:23.285Z,5.97
2023-03-22T08:34:51.203Z,2.15
2023-03-22T08:37:20.230Z,3.05
2023-03-22T08:39:48.649Z,3.45
2023-03-22T08:42:16.570Z,2.00
2023-03-22T08:44:46.121Z,3.42
2023-03-22T08:47:14.686Z,3.53
2023-03-22T08:49:43.203Z,3.75
2023-03-22T08:52:11.525Z,3.60
2023-03-22T08:54:39.636Z,5.60
2023-03-22T08:57:09.324Z,1.67
2023-03-22T08:59:37.248Z,5.03
2023-03-22T09:02:06.901Z,5.60
2023-03-22T09:04:34.846Z,3.40
2023-03-22T09:07:02.740Z,5.20
2023-03-22T09:09:30.852Z,4.50
2023-03-22T09:11:58.793Z,2.25
2023-03-22T09:14:26.630Z,3.17
2023-03-22T09:16:54.515Z,2.42
2023-03-22T09:19:23.674Z,3.42
2023-03-22T09:21:51.855Z,1.33
2023-03-22T09:24:19.948Z,2.28
2023-03-22T09:26:48.226Z,5.40
2023-03-22T09:29:16.328Z,2.20
2023-03-22T09:31:45.162Z,1.83
2023-03-22T09:34:13.117Z,4.25
2023-03-22T09:36:42.440Z,3.35
2023-03-22T09:39:10.311Z,1.30
2023-03-22T09:41:42.022Z,2.78
2023-03-22T09:44:15.794Z,2.20
2023-03-22T09:46:47.029Z,1.38
2023-03-22T09:49:19.412Z,4.22
2023-03-22T09:51:50.633Z,1.30
2023-03-22T09:54:21.692Z,2.75
2023-03-22T09:56:55.158Z,4.85
2023-03-22T09:59:31.309Z,2.08
2023-03-22T10:02:01.807Z,1.55
2023-03-22T10:04:53.142Z,3.30
2023-03-22T10:07:28.504Z,2.95
2023-03-22T10:10:07.366Z,3.17
2023-03-22T10:12:41.318Z,1.92
2023-03-22T10:15:14.892Z,3.08
2023-03-22T10:17:46.965Z,1.63
2023-03-22T10:20:26.421Z,0.82
2023-03-22T10:22:56.880Z,3.00
2023-03-22T10:25:32.761Z,2.28
2023-03-22T10:28:00.720Z,1.95
2023-03-22T10:30:35.224Z,0.90
2023-03-22T10:33:05.078Z,1.77
2023-03-22T10:35:33.487Z,2.08
2023-03-22T10:38:07.269Z,1.95
2023-03-22T10:40:37.367Z,2.20
2023-03-22T10:43:11.124Z,3.72
2023-03-22T10:45:39.815Z,0.70
2023-03-22T10:48:14.394Z,1.13
2023-03-22T10:50:45.497Z,2.45
2023-03-22T10:53:31.375Z,1.85
2023-03-22T10:55:59.569Z,1.23
2023-03-22T10:58:30.635Z,1.48
2023-03-22T11:01:00.980Z,3.00
2023-03-22T11:03:31.919Z,0.70
2023-03-22T11:06:01.828Z,2.65
2023-03-22T11:08:39.176Z,2.33
2023-03-22T11:11:07.808Z,2.55
2023-03-22T11:13:36.800Z,1.10
2023-03-22T11:16:05.848Z,1.33
2023-03-22T11:18:35.809Z,1.08
2023-03-22T11:21:08.277Z,0.77
2023-03-22T11:23:39.703Z,1.77
2023-03-22T11:26:10.342Z,0.88
2023-03-22T11:28:43.945Z,4.72
2023-03-22T11:31:13.234Z,2.00
2023-03-22T11:33:56.206Z,1.48
2023-03-22T11:36:24.453Z,1.20
2023-03-22T11:39:00.429Z,0.95
2023-03-22T11:41:30.743Z,3.53
2023-03-22T11:44:02.803Z,1.33
2023-03-22T11:46:32.036Z,1.35
2023-03-22T11:49:03.144Z,3.85
2023-03-22T11:51:35.001Z,0.73
2023-03-22T11:54:09.008Z,0.95
2023-03-22T11:56:42.148Z,4.10
2023-03-22T11:59:14.570Z,1.75
2023-03-22T12:01:47.636Z,2.20
2023-03-22T12:04:21.000Z,0.73
2023-03-22T12:06:50.034Z,0.98
2023-03-22T12:09:26.979Z,1.58
2023-03-22T12:11:57.772Z,2.42
2023-03-22T12:14:29.155Z,0.52
2023-03-22T12:17:01.906Z,1.02
2023-03-22T12:19:51.606Z,1.45
2023-03-22T12:22:22.587Z,1.13
2023-03-22T12:24:51.862Z,2.28
2023-03-22T12:27:24.491Z,3.28
2023-03-22T12:29:59.518Z,2.92
2023-03-22T12:32:30.431Z,0.80
2023-03-22T12:35:16.094Z,0.65
2023-03-22T12:37:48.955Z,1.70
2023-03-22T12:40:25.993Z,1.00
2023-03-22T12:43:03.628Z,2.53
2023-03-22T12:45:34.586Z,0.57
2023-03-22T12:48:07.987Z,5.20
2023-03-22T12:50:40.277Z,1.08
2023-03-22T12:53:11.970Z,1.42
2023-03-22T12:55:43.172Z,1.23
2023-03-22T12:58:16.043Z,0.73
2023-03-22T13:00:47.583Z,0.82
2023-03-22T13:03:28.825Z,0.88
2023-03-22T13:06:06.870Z,1.73
2023-03-22T13:11:25.999Z,1.58
2023-03-22T13:13:53.939Z,0.60
2023-03-22T13:16:40.836Z,2.30
2023-03-22T13:19:34.360Z,0.40
2023-03-22T13:22:27.011Z,1.75
2023-03-22T13:25:08.448Z,1.02
2023-03-22T13:27:41.853Z,2.95
2023-03-22T13:30:22.819Z,3.10
2023-03-22T13:32:56.287Z,3.35
2023-03-22T13:35:28.182Z,2.92
2023-03-22T13:38:03.763Z,0.63
2023-03-22T13:40:37.741Z,1.00
2023-03-22T13:43:24.161Z,0.50
2023-03-22T13:46:29.064Z,2.47
2023-03-22T13:49:18.234Z,1.42
2023-03-22T13:51:46.630Z,0.77
2023-03-22T13:54:23.867Z,1.20
2023-03-22T13:56:56.427Z,2.22
2023-03-22T13:59:31.291Z,1.23
2023-03-22T14:02:05.510Z,0.98
2023-03-22T14:04:40.691Z,0.55
2023-03-22T14:07:19.420Z,0.98
2023-03-22T14:09:52.288Z,3.60
2023-03-22T14:12:23.643Z,1.17
2023-03-22T14:14:56.618Z,1.63
2023-03-22T14:17:35.020Z,3.33
2023-03-22T14:20:06.042Z,1.48
